Time;durP1;ratioP1;P1;durP2;ratioP2;P2;SDS_P1;SDS_P2;PMS_P1;PMS_P2;Temp;Humidity;BMP_temperature;BMP_pressure;BME280_temperature;BME280_humidity;BME280_pressure;Samples;Min_cycle;Max_cycle;Signal;HPM_P1;HPM_P2
2022/11/02 00:01:19;;;;;;;10.30;2.30;;;12.60;99.90;;;;;;4983219;28;20336;-73
2022/11/02 00:03:45;;;;;;;12.00;2.65;;;12.70;99.90;;;;;;4987586;28;20029;-75
2022/11/02 00:06:11;;;;;;;6.97;2.00;;;12.70;99.90;;;;;;4990841;28;20030;-74
2022/11/02 00:08:37;;;;;;;10.70;2.42;;;12.70;99.90;;;;;;4990225;28;20038;-74
2022/11/02 00:11:02;;;;;;;9.48;2.25;;;12.70;99.90;;;;;;4991606;28;20015;-74
2022/11/02 00:13:28;;;;;;;13.55;2.72;;;12.70;99.90;;;;;;4990151;28;20105;-73
2022/11/02 00:15:54;;;;;;;12.15;2.22;;;12.70;99.90;;;;;;4986639;28;20034;-73
2022/11/02 00:18:20;;;;;;;11.93;2.13;;;12.80;99.90;;;;;;4998096;28;20360;-74
2022/11/02 00:20:45;;;;;;;9.05;1.95;;;12.70;99.90;;;;;;4984184;28;20466;-74
2022/11/02 00:23:12;;;;;;;8.75;1.80;;;12.70;99.90;;;;;;4986165;28;20030;-73
2022/11/02 00:25:44;;;;;;;7.88;1.30;;;12.60;99.90;;;;;;4988836;28;20139;-73
2022/11/02 00:28:09;;;;;;;7.90;1.35;;;12.50;99.90;;;;;;4984676;28;20088;-75
2022/11/02 00:30:36;;;;;;;9.50;1.27;;;12.30;99.90;;;;;;4991305;28;20034;-73
2022/11/02 00:33:02;;;;;;;6.55;1.15;;;12.20;99.90;;;;;;4990400;28;20068;-73
2022/11/02 00:35:27;;;;;;;6.63;1.40;;;12.20;99.90;;;;;;4990403;28;20410;-73
2022/11/02 00:37:53;;;;;;;4.72;0.85;;;12.10;99.90;;;;;;4988636;28;20089;-74
2022/11/02 00:40:19;;;;;;;4.30;0.80;;;12.00;99.90;;;;;;4986038;28;20110;-75
2022/11/02 00:42:44;;;;;;;5.50;1.02;;;11.80;99.90;;;;;;4983090;28;20522;-74
2022/11/02 00:45:10;;;;;;;6.88;1.17;;;11.70;99.90;;;;;;4985046;28;20487;-73
2022/11/02 00:47:36;;;;;;;3.30;0.70;;;11.60;99.90;;;;;;4971427;28;20291;-73
2022/11/02 00:50:02;;;;;;;5.82;0.90;;;11.60;99.90;;;;;;4979542;28;20547;-73
2022/11/02 00:52:28;;;;;;;8.45;1.30;;;11.50;99.90;;;;;;4990989;28;20033;-73
2022/11/02 00:54:53;;;;;;;8.00;1.25;;;11.50;99.90;;;;;;5005929;28;20718;-73
2022/11/02 00:57:19;;;;;;;10.65;1.67;;;11.50;99.90;;;;;;4988219;28;20081;-73
2022/11/02 00:59:45;;;;;;;10.13;1.30;;;11.50;99.90;;;;;;4985412;28;20418;-73
2022/11/02 01:02:10;;;;;;;9.48;1.10;;;11.50;99.90;;;;;;4987206;28;20030;-73
2022/11/02 01:04:36;;;;;;;7.35;1.10;;;11.50;99.90;;;;;;4992543;28;20033;-74
2022/11/02 01:07:02;;;;;;;12.13;1.83;;;11.50;99.90;;;;;;4993621;28;20105;-73
2022/11/02 01:09:28;;;;;;;8.10;1.17;;;11.50;99.90;;;;;;4993026;28;20407;-74
2022/11/02 01:11:53;;;;;;;8.23;1.33;;;11.50;99.90;;;;;;4994624;28;20030;-75
2022/11/02 01:14:20;;;;;;;15.10;1.48;;;11.50;99.90;;;;;;4980209;28;20031;-73
2022/11/02 01:16:46;;;;;;;10.73;1.33;;;11.60;99.90;;;;;;4981904;28;20030;-74
2022/11/02 01:19:12;;;;;;;11.65;1.70;;;11.50;99.90;;;;;;4984741;28;20037;-75
2022/11/02 01:21:37;;;;;;;14.73;1.80;;;11.50;99.90;;;;;;4983306;28;20033;-73
2022/11/02 01:24:03;;;;;;;16.30;1.85;;;11.50;99.90;;;;;;4993360;28;20471;-73
2022/11/02 01:26:29;;;;;;;8.20;1.50;;;11.50;99.90;;;;;;4993653;28;20023;-74
2022/11/02 01:28:54;;;;;;;14.10;1.40;;;11.50;99.90;;;;;;4988416;28;20042;-74
2022/11/02 01:31:20;;;;;;;13.18;1.48;;;11.50;99.90;;;;;;4992955;28;20157;-75
2022/11/02 01:33:46;;;;;;;10.07;1.48;;;11.50;99.90;;;;;;4993219;28;20034;-73
2022/11/02 01:36:14;;;;;;;14.55;1.45;;;11.50;99.90;;;;;;4990921;28;20030;-74
2022/11/02 01:38:39;;;;;;;13.48;1.70;;;11.40;99.90;;;;;;4993504;28;20045;-75
2022/11/02 01:41:06;;;;;;;11.38;1.40;;;11.40;99.90;;;;;;4992804;28;20042;-74
2022/11/02 01:43:34;;;;;;;9.98;1.70;;;11.40;99.90;;;;;;4992149;28;20030;-75
2022/11/02 01:46:05;;;;;;;10.85;1.60;;;11.50;99.90;;;;;;4977647;28;20105;-74
2022/11/02 01:48:35;;;;;;;11.90;1.40;;;11.50;99.90;;;;;;4994041;28;20041;-73
2022/11/02 01:51:04;;;;;;;12.52;2.00;;;11.60;99.90;;;;;;4984424;28;20073;-74
2022/11/02 01:53:32;;;;;;;10.68;1.38;;;11.60;99.90;;;;;;4991523;28;20791;-73
2022/11/02 01:55:59;;;;;;;8.77;1.58;;;11.70;99.90;;;;;;4985008;28;20035;-73
2022/11/02 01:58:26;;;;;;;8.68;1.73;;;11.70;99.90;;;;;;4984066;28;20038;-74
2022/11/02 02:00:52;;;;;;;9.80;1.48;;;11.80;99.90;;;;;;4993006;28;20042;-73
2022/11/02 02:03:20;;;;;;;11.98;1.98;;;11.80;99.90;;;;;;4989189;28;20499;-73
2022/11/02 02:06:02;;;;;;;14.23;1.73;;;11.90;99.90;;;;;;4993164;28;20033;-74
2022/11/02 02:08:28;;;;;;;13.18;1.70;;;11.90;99.90;;;;;;4988005;28;20038;-73
2022/11/02 02:10:57;;;;;;;11.73;2.10;;;11.90;99.90;;;;;;4987118;28;20034;-75
2022/11/02 02:13:25;;;;;;;9.95;1.73;;;12.00;99.90;;;;;;4990437;28;20034;-75
2022/11/02 02:16:19;;;;;;;8.32;1.63;;;12.00;99.90;;;;;;4984475;28;20025;-74
2022/11/02 02:18:50;;;;;;;13.25;2.10;;;12.10;99.90;;;;;;4991655;28;20061;-74
2022/11/02 02:21:39;;;;;;;8.68;1.50;;;12.10;99.90;;;;;;4986038;28;20109;-73
2022/11/02 02:24:20;;;;;;;12.75;1.85;;;12.20;99.90;;;;;;4979377;28;20038;-73
2022/11/02 02:27:01;;;;;;;12.95;1.83;;;12.20;99.90;;;;;;4991981;28;20109;-74
2022/11/02 02:29:56;;;;;;;8.77;1.70;;;12.20;99.90;;;;;;4989204;28;20035;-73
2022/11/02 02:32:40;;;;;;;11.05;2.28;;;12.20;99.90;;;;;;4964584;28;20044;-73
2022/11/02 02:35:15;;;;;;;11.50;1.77;;;12.20;99.90;;;;;;4984697;28;20037;-73
2022/11/02 02:38:11;;;;;;;11.65;1.63;;;12.30;99.90;;;;;;4978539;28;20035;-74
2022/11/02 02:40:56;;;;;;;;;;;12.30;99.90;;;;;;4991235;28;20038;-75
2022/11/02 02:43:33;;;;;;;7.85;1.63;;;12.30;99.90;;;;;;4992252;28;20274;-78
2022/11/02 02:46:15;;;;;;;10.60;1.63;;;12.30;99.90;;;;;;4987664;28;20049;-73
2022/11/02 02:48:43;;;;;;;10.25;2.17;;;12.30;99.90;;;;;;4988053;28;20501;-75
2022/11/02 02:51:13;;;;;;;13.00;2.35;;;12.30;99.90;;;;;;4984584;28;20307;-74
2022/11/02 02:53:56;;;;;;;13.95;2.20;;;12.30;99.90;;;;;;4986476;28;20042;-75
2022/11/02 02:56:25;;;;;;;11.73;2.30;;;12.30;99.90;;;;;;4992149;28;20034;-74
2022/11/02 02:59:06;;;;;;;15.25;2.50;;;12.20;99.90;;;;;;4992506;28;20030;-75
2022/11/02 03:01:33;;;;;;;12.90;2.20;;;12.10;99.90;;;;;;4990151;28;20486;-74
2022/11/02 03:03:59;;;;;;;20.60;2.80;;;12.10;99.90;;;;;;4990757;28;20034;-73
2022/11/02 03:06:31;;;;;;;15.77;2.67;;;12.10;99.90;;;;;;4982371;28;20034;-75
2022/11/02 03:08:57;;;;;;;13.60;2.35;;;12.10;99.90;;;;;;4984480;28;20062;-79
2022/11/02 03:11:23;;;;;;;16.67;2.80;;;12.00;99.90;;;;;;4990162;28;20058;-74
2022/11/02 03:14:16;;;;;;;15.40;2.47;;;12.00;99.90;;;;;;4991008;28;20034;-74
2022/11/02 03:17:06;;;;;;;14.13;2.50;;;12.10;99.90;;;;;;4987924;28;20074;-74
2022/11/02 03:20:00;;;;;;;13.77;2.67;;;12.10;99.90;;;;;;4990451;28;20034;-74
2022/11/02 03:22:46;;;;;;;15.82;2.63;;;12.10;99.90;;;;;;4984645;28;20030;-74
2022/11/02 03:25:17;;;;;;;;;;;12.10;99.90;;;;;;4986180;28;20270;-75
2022/11/02 03:28:15;;;;;;;16.90;3.10;;;12.00;99.90;;;;;;4989064;28;19910;-75
2022/11/02 03:30:49;;;;;;;19.52;4.13;;;12.00;99.90;;;;;;4990769;28;20053;-74
2022/11/02 03:33:28;;;;;;;25.40;4.30;;;12.00;99.90;;;;;;4992250;28;20385;-74
2022/11/02 03:35:56;;;;;;;16.10;2.58;;;12.00;99.90;;;;;;4991668;28;20080;-74
2022/11/02 03:38:28;;;;;;;22.13;3.05;;;12.00;99.90;;;;;;4987005;28;20026;-74
2022/11/02 03:40:55;;;;;;;19.90;2.80;;;12.00;99.90;;;;;;4985679;28;20078;-75
2022/11/02 03:43:22;;;;;;;18.73;2.67;;;11.90;99.90;;;;;;4986033;28;20026;-74
2022/11/02 03:45:59;;;;;;;24.08;2.92;;;11.90;99.90;;;;;;4988649;28;20053;-74
2022/11/02 03:48:31;;;;;;;23.85;3.10;;;11.90;99.90;;;;;;4978857;28;20286;-74
2022/11/02 03:50:59;;;;;;;26.90;3.58;;;11.90;99.90;;;;;;4990993;28;20483;-74
2022/11/02 03:53:41;;;;;;;18.83;2.60;;;11.90;99.90;;;;;;4987858;28;20034;-73
2022/11/02 03:56:13;;;;;;;23.05;3.35;;;11.90;99.90;;;;;;4986622;28;20475;-74
2022/11/02 03:58:39;;;;;;;18.15;3.13;;;11.90;99.90;;;;;;4985838;28;20323;-74
2022/11/02 04:01:13;;;;;;;18.70;2.97;;;11.90;99.90;;;;;;4980003;28;20109;-74
2022/11/02 04:03:44;;;;;;;23.63;3.67;;;11.90;99.90;;;;;;4985756;28;20042;-74
2022/11/02 04:06:11;;;;;;;21.73;3.13;;;11.80;99.90;;;;;;4977912;28;20065;-74
2022/11/02 04:08:41;;;;;;;26.65;3.75;;;11.80;99.90;;;;;;4986059;28;20046;-74
2022/11/02 04:16:35;;;;;;;21.98;3.42;;;11.90;99.90;;;;;;4990356;28;20549;-75
2022/11/02 04:27:14;;;;;;;19.58;2.60;;;11.90;99.90;;;;;;4988599;28;20549;-75
2022/11/02 04:29:39;;;;;;;18.30;2.33;;;11.90;99.90;;;;;;4990853;28;20030;-75
2022/11/02 04:32:05;;;;;;;17.35;2.47;;;11.90;99.90;;;;;;4990335;28;20030;-74
2022/11/02 04:34:30;;;;;;;15.13;2.25;;;11.90;99.90;;;;;;4991163;28;20034;-74
2022/11/02 04:36:56;;;;;;;24.65;2.80;;;11.80;99.90;;;;;;4990656;28;20014;-74
2022/11/02 04:39:22;;;;;;;19.60;2.55;;;11.80;99.90;;;;;;4991105;28;20041;-74
2022/11/02 04:41:47;;;;;;;21.10;2.47;;;11.80;99.90;;;;;;4989436;28;20101;-74
2022/11/02 04:44:14;;;;;;;19.17;2.72;;;11.80;99.90;;;;;;4991218;28;20169;-74
2022/11/02 04:46:41;;;;;;;19.90;2.78;;;11.80;99.90;;;;;;4989924;28;20018;-74
2022/11/02 04:49:08;;;;;;;14.82;2.50;;;11.80;99.90;;;;;;4991195;28;20022;-73
2022/11/02 04:51:34;;;;;;;19.00;2.55;;;11.80;99.90;;;;;;5006019;28;20081;-73
2022/11/02 04:54:00;;;;;;;14.40;2.28;;;11.80;99.90;;;;;;4986516;28;20022;-75
2022/11/02 04:56:27;;;;;;;12.13;1.75;;;11.80;99.90;;;;;;4990643;28;20034;-74
2022/11/02 04:58:55;;;;;;;15.52;2.33;;;11.80;99.90;;;;;;4989305;28;20018;-73
2022/11/02 05:01:22;;;;;;;22.40;2.45;;;11.80;99.90;;;;;;4977918;28;20026;-74
2022/11/02 05:03:49;;;;;;;18.98;2.90;;;11.90;99.90;;;;;;4990165;28;20387;-73
2022/11/02 05:06:15;;;;;;;13.45;1.98;;;11.90;99.90;;;;;;4985061;28;20034;-74
2022/11/02 05:08:41;;;;;;;14.98;2.05;;;11.90;99.90;;;;;;4980767;28;20029;-74
2022/11/02 05:11:08;;;;;;;12.25;1.83;;;12.00;99.90;;;;;;4990381;28;20026;-73
2022/11/02 05:13:35;;;;;;;18.23;2.47;;;11.90;99.90;;;;;;4991392;28;20093;-74
2022/11/02 05:16:00;;;;;;;8.98;1.73;;;11.90;99.90;;;;;;4990700;28;20030;-73
2022/11/02 05:18:27;;;;;;;13.32;1.73;;;11.90;99.90;;;;;;4990541;28;20051;-74
2022/11/02 05:20:55;;;;;;;11.52;2.05;;;12.00;99.90;;;;;;4990617;28;20027;-73
2022/11/02 05:23:21;;;;;;;14.75;1.92;;;12.00;99.90;;;;;;4989354;28;20050;-74
2022/11/02 05:26:02;;;;;;;14.20;1.77;;;12.00;99.90;;;;;;4990923;28;20057;-74
2022/11/02 05:28:28;;;;;;;15.02;1.95;;;12.00;99.90;;;;;;4984678;28;20030;-73
2022/11/02 05:30:57;;;;;;;9.10;1.58;;;12.00;99.90;;;;;;4970934;28;20034;-74
2022/11/02 05:33:22;;;;;;;14.88;1.85;;;12.00;99.90;;;;;;4987881;28;20010;-73
2022/11/02 05:35:48;;;;;;;15.00;1.80;;;12.00;99.90;;;;;;4988956;28;20471;-74
2022/11/02 05:38:13;;;;;;;10.98;1.70;;;12.00;99.90;;;;;;4989704;28;20030;-74
2022/11/02 05:40:39;;;;;;;10.98;1.77;;;12.00;99.90;;;;;;4997575;28;20058;-73
2022/11/02 05:43:08;;;;;;;9.10;1.67;;;12.00;99.90;;;;;;4989196;28;20026;-74
2022/11/02 05:45:35;;;;;;;13.40;2.13;;;12.00;99.90;;;;;;4999063;28;20438;-74
2022/11/02 05:48:02;;;;;;;11.52;2.13;;;12.00;99.90;;;;;;4990619;28;20092;-76
2022/11/02 05:50:28;;;;;;;12.63;2.33;;;12.00;99.90;;;;;;4993324;28;20073;-75
2022/11/02 05:52:55;;;;;;;11.57;1.83;;;12.00;99.90;;;;;;4992905;28;20125;-76
2022/11/02 05:55:20;;;;;;;15.55;1.48;;;12.00;99.90;;;;;;4992721;28;20442;-75
2022/11/02 05:57:51;;;;;;;15.18;1.63;;;12.00;99.90;;;;;;4989703;28;20029;-75
2022/11/02 06:00:16;;;;;;;12.32;2.15;;;12.00;99.90;;;;;;4992127;28;20050;-75
2022/11/02 06:02:42;;;;;;;11.68;1.60;;;12.00;99.90;;;;;;4990863;28;20428;-75
2022/11/02 06:05:08;;;;;;;12.90;1.65;;;12.00;99.90;;;;;;4991410;28;20030;-76
2022/11/02 06:07:33;;;;;;;12.60;1.80;;;12.00;99.90;;;;;;4991513;28;20030;-76
2022/11/02 06:09:59;;;;;;;16.70;1.80;;;12.00;99.90;;;;;;4992275;28;20119;-74
2022/11/02 06:12:24;;;;;;;12.35;1.98;;;12.10;99.90;;;;;;4992444;28;20028;-77
2022/11/02 06:14:50;;;;;;;11.77;1.52;;;12.10;99.90;;;;;;4990038;28;20018;-75
2022/11/02 06:17:15;;;;;;;13.38;1.88;;;12.10;99.90;;;;;;4992113;28;20033;-75
2022/11/02 06:19:41;;;;;;;14.55;2.40;;;12.10;99.90;;;;;;4990549;28;20206;-75
2022/11/02 06:22:06;;;;;;;10.35;2.03;;;12.10;99.90;;;;;;4992275;28;20030;-74
2022/11/02 06:24:32;;;;;;;18.70;2.40;;;12.10;99.90;;;;;;4992011;28;20026;-75
2022/11/02 06:26:57;;;;;;;13.38;2.00;;;12.10;99.90;;;;;;4992450;28;20089;-74
2022/11/02 06:29:23;;;;;;;14.43;2.10;;;12.10;99.90;;;;;;4993163;28;20066;-75
2022/11/02 06:31:49;;;;;;;12.02;1.63;;;12.10;99.90;;;;;;4992523;28;20433;-75
2022/11/02 06:34:14;;;;;;;15.93;2.33;;;12.10;99.90;;;;;;4991481;28;20022;-74
2022/11/02 06:36:40;;;;;;;13.43;1.40;;;12.00;99.90;;;;;;4986827;28;20108;-74
2022/11/02 06:39:05;;;;;;;15.43;1.73;;;12.00;99.90;;;;;;4990967;28;20033;-76
2022/11/02 06:41:31;;;;;;;12.63;1.77;;;12.00;99.90;;;;;;4984871;28;20114;-75
2022/11/02 06:43:56;;;;;;;12.00;2.10;;;12.00;99.90;;;;;;4986530;28;20023;-75
2022/11/02 06:46:22;;;;;;;14.65;2.03;;;12.00;99.90;;;;;;4983814;28;20147;-75
2022/11/02 06:48:47;;;;;;;9.32;1.60;;;12.00;99.90;;;;;;4990123;28;20371;-76
2022/11/02 06:51:13;;;;;;;12.70;1.80;;;12.00;99.90;;;;;;4993088;28;20022;-76
2022/11/02 06:53:39;;;;;;;13.98;1.75;;;12.00;99.90;;;;;;4993857;28;20031;-76
2022/11/02 06:56:05;;;;;;;12.18;1.63;;;12.00;99.90;;;;;;4978697;28;20125;-77
2022/11/02 06:58:31;;;;;;;14.40;1.67;;;12.00;99.90;;;;;;4986820;28;20084;-75
2022/11/02 07:00:59;;;;;;;12.57;1.65;;;12.00;99.90;;;;;;4990443;28;20015;-76
2022/11/02 07:03:24;;;;;;;13.63;1.92;;;12.00;99.90;;;;;;4988013;28;20538;-75
2022/11/02 07:05:51;;;;;;;13.45;2.08;;;12.00;99.90;;;;;;4992145;28;20105;-76
2022/11/02 07:08:16;;;;;;;9.88;1.67;;;12.00;99.90;;;;;;4987070;28;20030;-76
2022/11/02 07:10:42;;;;;;;11.43;2.00;;;12.00;99.90;;;;;;4979924;28;20048;-76
2022/11/02 07:13:08;;;;;;;15.75;2.28;;;12.00;99.90;;;;;;4979086;28;20419;-76
2022/11/02 07:15:33;;;;;;;9.85;2.00;;;11.90;99.90;;;;;;4988342;28;20061;-76
2022/11/02 07:17:59;;;;;;;11.15;1.63;;;11.90;99.90;;;;;;4987465;28;20034;-76
2022/11/02 07:20:24;;;;;;;15.88;1.90;;;11.90;99.90;;;;;;4984127;28;20038;-76
2022/11/02 07:22:58;;;;;;;15.55;1.98;;;12.00;99.90;;;;;;4991847;28;20019;-76
2022/11/02 07:25:25;;;;;;;12.40;1.60;;;12.00;99.90;;;;;;4990979;28;20564;-75
2022/11/02 07:27:51;;;;;;;13.95;1.90;;;12.00;99.90;;;;;;4988744;28;20033;-77
2022/11/02 07:30:17;;;;;;;18.65;2.22;;;12.00;99.90;;;;;;4991478;28;20034;-77
2022/11/02 07:32:44;;;;;;;13.80;2.13;;;12.00;99.90;;;;;;4992144;28;20023;-78
2022/11/02 07:35:12;;;;;;;15.52;2.38;;;12.00;99.90;;;;;;4991223;28;20034;-79
2022/11/02 07:37:38;;;;;;;15.85;1.92;;;12.10;99.90;;;;;;4991382;28;20121;-78
2022/11/02 07:40:06;;;;;;;17.98;2.10;;;12.10;99.90;;;;;;4987350;28;20049;-79
2022/11/02 07:42:31;;;;;;;14.02;2.17;;;12.20;99.90;;;;;;4972349;28;20027;-78
2022/11/02 07:44:57;;;;;;;10.93;1.83;;;12.20;99.90;;;;;;4986621;28;20553;-79
2022/11/02 07:47:22;;;;;;;18.85;2.20;;;12.30;99.90;;;;;;4990815;28;20384;-79
2022/11/02 07:49:48;;;;;;;13.43;1.77;;;12.30;99.90;;;;;;4991197;28;20115;-79
2022/11/02 07:52:13;;;;;;;14.88;2.40;;;12.30;99.90;;;;;;4987755;28;20027;-80
2022/11/02 07:54:39;;;;;;;19.70;2.20;;;12.40;99.90;;;;;;4991507;28;20483;-78
2022/11/02 07:57:06;;;;;;;12.38;2.22;;;12.40;99.90;;;;;;4995413;28;20147;-83
2022/11/02 07:59:31;;;;;;;14.23;2.00;;;12.40;99.90;;;;;;4990870;28;20482;-78
2022/11/02 08:01:57;;;;;;;8.20;1.60;;;12.40;99.90;;;;;;4986100;28;20026;-75
2022/11/02 08:04:23;;;;;;;19.40;2.45;;;12.50;99.90;;;;;;4991273;28;20019;-76
2022/11/02 08:06:48;;;;;;;12.13;1.85;;;12.40;99.90;;;;;;4990981;28;20033;-74
2022/11/02 08:09:14;;;;;;;14.82;1.80;;;12.50;99.90;;;;;;4990158;28;20042;-75
2022/11/02 08:11:40;;;;;;;10.55;1.70;;;12.50;99.90;;;;;;4991423;28;20030;-78
2022/11/02 08:14:06;;;;;;;11.05;1.90;;;12.50;99.90;;;;;;4978045;28;20051;-75
2022/11/02 08:16:32;;;;;;;12.35;1.80;;;12.50;99.90;;;;;;4990321;28;20053;-75
2022/11/02 08:18:58;;;;;;;10.43;1.48;;;12.50;99.90;;;;;;4991281;28;20096;-76
2022/11/02 08:21:24;;;;;;;13.13;1.60;;;12.50;99.90;;;;;;4990382;28;20109;-75
2022/11/02 08:23:50;;;;;;;16.58;2.67;;;12.60;99.90;;;;;;4985482;28;20113;-76
2022/11/02 08:26:15;;;;;;;8.60;1.88;;;12.60;99.90;;;;;;5005484;28;20447;-76
2022/11/02 08:28:41;;;;;;;17.67;1.98;;;12.60;99.90;;;;;;4991065;28;20117;-75
2022/11/02 08:31:14;;;;;;;13.77;1.90;;;12.60;99.90;;;;;;4990652;28;20442;-75
2022/11/02 08:33:39;;;;;;;9.75;1.55;;;12.70;99.90;;;;;;4977638;28;20026;-76
2022/11/02 08:36:05;;;;;;;10.48;1.88;;;12.70;99.90;;;;;;4990695;28;20109;-77
2022/11/02 08:38:31;;;;;;;11.48;1.83;;;12.70;99.90;;;;;;4988616;28;20037;-76
2022/11/02 08:40:56;;;;;;;10.45;1.60;;;12.80;99.90;;;;;;4990399;28;20073;-76
2022/11/02 08:43:22;;;;;;;14.75;2.10;;;12.80;99.90;;;;;;4989720;28;20034;-76
2022/11/02 08:45:48;;;;;;;17.90;1.88;;;12.80;99.90;;;;;;4988687;28;20022;-76
2022/11/02 08:48:13;;;;;;;10.60;1.73;;;12.90;99.90;;;;;;4984858;28;20050;-76
2022/11/02 08:50:39;;;;;;;16.65;2.17;;;12.90;99.90;;;;;;4990023;28;20037;-76
2022/11/02 08:53:05;;;;;;;11.23;2.38;;;13.00;99.90;;;;;;4991031;28;20049;-75
2022/11/02 08:55:31;;;;;;;17.08;1.88;;;13.00;99.90;;;;;;4981955;28;20026;-76
2022/11/02 08:57:58;;;;;;;16.98;1.90;;;13.10;99.90;;;;;;4988881;28;20552;-77
2022/11/02 09:00:29;;;;;;;15.57;2.03;;;13.10;99.90;;;;;;4981326;28;20043;-75
2022/11/02 09:03:08;;;;;;;13.15;1.75;;;13.20;99.90;;;;;;4990216;28;20026;-76
2022/11/02 09:05:38;;;;;;;15.52;2.25;;;13.20;99.90;;;;;;4977804;28;20038;-75
2022/11/02 09:08:06;;;;;;;11.02;1.88;;;13.30;99.90;;;;;;4977256;28;20483;-76
2022/11/02 09:10:34;;;;;;;13.98;1.75;;;13.30;99.90;;;;;;4984264;28;20065;-74
2022/11/02 09:13:02;;;;;;;12.57;1.83;;;13.30;99.90;;;;;;4982555;28;20453;-74
2022/11/02 09:15:28;;;;;;;8.60;1.73;;;13.30;99.90;;;;;;4979759;28;20505;-74
2022/11/02 09:17:54;;;;;;;7.80;1.80;;;13.30;99.90;;;;;;4989238;28;20496;-74
2022/11/02 09:20:21;;;;;;;18.00;2.28;;;13.40;99.90;;;;;;4981585;28;20054;-74
2022/11/02 09:22:46;;;;;;;15.25;2.08;;;13.50;99.90;;;;;;4994232;28;20112;-74
2022/11/02 09:25:14;;;;;;;15.98;2.30;;;13.50;99.90;;;;;;4986039;28;20491;-76
2022/11/02 09:27:41;;;;;;;13.68;2.00;;;13.60;99.90;;;;;;4987674;28;20038;-74
2022/11/02 09:30:08;;;;;;;10.77;1.70;;;13.70;99.90;;;;;;4989116;28;20026;-76
2022/11/02 09:32:34;;;;;;;14.15;1.95;;;13.80;99.90;;;;;;4988456;28;20113;-74
2022/11/02 09:35:02;;;;;;;13.95;2.25;;;13.90;99.90;;;;;;4991012;28;20507;-75
2022/11/02 09:37:28;;;;;;;16.35;2.33;;;14.00;99.90;;;;;;4987285;28;20038;-75
2022/11/02 09:39:54;;;;;;;11.18;1.80;;;14.00;99.90;;;;;;4991608;28;20055;-76
2022/11/02 09:42:23;;;;;;;13.98;1.80;;;14.10;99.90;;;;;;4993762;28;20034;-75
2022/11/02 09:44:58;;;;;;;18.90;2.47;;;14.20;99.90;;;;;;4994214;28;20387;-75
2022/11/02 09:47:26;;;;;;;15.07;2.00;;;14.20;99.90;;;;;;4981648;28;20391;-74
2022/11/02 09:49:55;;;;;;;11.70;1.52;;;14.30;99.90;;;;;;4980494;28;20026;-74
2022/11/02 09:52:33;;;;;;;13.00;2.30;;;14.20;99.90;;;;;;4978623;28;20019;-74
2022/11/02 09:55:03;;;;;;;13.70;2.15;;;14.20;99.90;;;;;;4993835;28;20054;-76
2022/11/02 09:57:32;;;;;;;13.93;2.45;;;14.10;99.90;;;;;;4977417;28;20025;-74
2022/11/02 09:59:57;;;;;;;10.70;1.80;;;14.10;99.90;;;;;;4989282;28;20085;-74
2022/11/02 10:02:42;;;;;;;13.57;1.83;;;14.10;99.90;;;;;;4991538;28;20042;-76
2022/11/02 10:05:30;;;;;;;15.32;1.90;;;14.10;99.90;;;;;;4984059;28;20053;-74
2022/11/02 10:08:21;;;;;;;15.20;2.33;;;14.20;99.90;;;;;;4979055;28;20533;-74
2022/11/02 10:10:56;;;;;;;15.70;2.45;;;14.30;99.90;;;;;;4979029;28;20050;-74
2022/11/02 10:13:52;;;;;;;13.07;1.98;;;14.30;99.90;;;;;;4992075;28;20101;-75
2022/11/02 10:16:28;;;;;;;15.07;1.95;;;14.40;99.90;;;;;;4992592;28;20018;-74
2022/11/02 10:18:54;;;;;;;16.50;1.90;;;14.40;99.90;;;;;;4993456;28;20471;-74
2022/11/02 10:21:35;;;;;;;12.98;2.22;;;14.50;99.90;;;;;;4978836;28;20508;-75
2022/11/02 10:24:27;;;;;;;9.20;1.88;;;14.50;99.90;;;;;;4989986;28;20030;-75
2022/11/02 10:26:58;;;;;;;13.75;1.85;;;14.40;99.90;;;;;;4990854;28;20138;-75
2022/11/02 10:29:39;;;;;;;27.48;2.70;;;14.30;99.90;;;;;;4979480;28;20035;-74
2022/11/02 10:32:06;;;;;;;14.25;2.00;;;14.30;99.90;;;;;;4992231;28;20027;-75
2022/11/02 10:34:33;;;;;;;16.42;2.15;;;14.30;99.90;;;;;;4978907;28;20383;-74
2022/11/02 10:37:17;;;;;;;17.15;2.28;;;14.30;99.90;;;;;;4987620;28;20027;-74
2022/11/02 10:40:23;;;;;;;22.75;2.67;;;14.30;99.90;;;;;;4983679;28;20086;-75
2022/11/02 10:43:12;;;;;;;19.60;2.70;;;14.50;99.90;;;;;;4921752;28;20423;-75
2022/11/02 10:45:40;;;;;;;12.95;2.50;;;14.60;99.90;;;;;;4977781;28;20041;-76
2022/11/02 10:48:24;;;;;;;20.85;2.50;;;14.60;99.90;;;;;;4981228;28;20022;-76
2022/11/02 10:51:08;;;;;;;17.05;2.47;;;14.70;99.90;;;;;;4992470;28;20026;-74
2022/11/02 10:53:48;;;;;;;20.48;2.28;;;14.80;99.90;;;;;;4979723;28;20039;-75
2022/11/02 10:56:29;;;;;;;18.92;2.20;;;14.80;99.90;;;;;;4990842;28;20070;-75
2022/11/02 10:58:58;;;;;;;15.10;2.65;;;14.90;99.90;;;;;;4986688;28;20616;-75
2022/11/02 11:01:24;;;;;;;15.07;1.90;;;14.90;99.90;;;;;;4992260;28;20449;-74
2022/11/02 11:03:56;;;;;;;17.13;2.40;;;14.90;99.90;;;;;;4991944;28;20026;-75
2022/11/02 11:06:33;;;;;;;12.98;2.13;;;14.90;99.90;;;;;;4992948;28;20022;-75
2022/11/02 11:09:01;;;;;;;13.02;2.00;;;15.00;99.90;;;;;;4991301;28;20114;-74
2022/11/02 11:11:29;;;;;;;17.67;2.30;;;15.00;99.90;;;;;;4991182;28;20443;-75
2022/11/02 11:14:12;;;;;;;23.55;2.75;;;15.00;99.90;;;;;;4991691;28;20383;-75
2022/11/02 11:16:43;;;;;;;19.83;2.40;;;15.00;99.90;;;;;;4991105;28;20101;-77
2022/11/02 11:19:21;;;;;;;14.88;2.70;;;15.00;99.90;;;;;;4989777;28;20030;-75
2022/11/02 11:21:48;;;;;;;16.95;2.70;;;15.00;99.90;;;;;;4991664;28;20018;-75
2022/11/02 11:24:23;;;;;;;15.10;2.33;;;15.00;99.90;;;;;;4990876;28;20446;-75
2022/11/02 11:27:12;;;;;;;13.90;2.50;;;15.00;99.90;;;;;;4991231;28;20014;-75
2022/11/02 11:29:40;;;;;;;15.52;2.15;;;15.00;99.90;;;;;;4991746;28;20038;-75
2022/11/02 11:32:17;;;;;;;12.48;2.10;;;15.00;99.90;;;;;;4972536;28;20089;-77
2022/11/02 11:34:52;;;;;;;19.73;2.85;;;14.90;99.90;;;;;;4972360;28;20022;-76
2022/11/02 11:37:18;;;;;;;16.37;2.60;;;14.90;99.90;;;;;;4975168;28;20038;-75
2022/11/02 11:39:48;;;;;;;10.80;2.03;;;14.90;99.90;;;;;;4990912;28;20789;-75
2022/11/02 11:42:18;;;;;;;17.38;2.53;;;15.00;99.90;;;;;;4991895;28;20026;-75
2022/11/02 11:44:55;;;;;;;18.50;2.20;;;15.00;99.90;;;;;;4988668;28;20022;-73
2022/11/02 11:47:32;;;;;;;15.57;2.10;;;15.00;99.90;;;;;;4978837;28;20031;-74
2022/11/02 11:50:01;;;;;;;14.23;2.30;;;15.10;99.90;;;;;;4990745;28;20030;-74
2022/11/02 11:52:30;;;;;;;11.60;2.10;;;15.10;99.90;;;;;;4990927;28;20034;-74
2022/11/02 11:54:58;;;;;;;15.95;2.28;;;15.10;99.90;;;;;;4986421;28;20457;-76
2022/11/02 11:57:30;;;;;;;12.77;2.22;;;15.10;99.90;;;;;;4990100;28;20033;-76
2022/11/02 11:59:58;;;;;;;12.98;2.63;;;15.20;99.90;;;;;;4991392;28;20085;-76
2022/11/02 12:02:30;;;;;;;16.10;2.85;;;15.20;99.90;;;;;;4987153;28;20404;-76
2022/11/02 12:05:13;;;;;;;14.70;2.35;;;15.20;99.90;;;;;;4990899;28;20026;-77
2022/11/02 12:07:39;;;;;;;14.63;2.28;;;15.30;99.90;;;;;;4990263;28;20267;-76
2022/11/02 12:10:19;;;;;;;15.95;2.30;;;15.30;99.90;;;;;;4981108;28;20030;-77
2022/11/02 12:13:06;;;;;;;17.98;2.60;;;15.30;99.90;;;;;;4975693;28;20228;-75
2022/11/02 12:16:02;;;;;;;14.23;2.53;;;15.30;99.90;;;;;;4990656;28;20085;-75
2022/11/02 12:18:36;;;;;;;15.88;2.47;;;15.40;99.90;;;;;;4983355;28;20042;-77
2022/11/02 12:21:05;;;;;;;10.35;1.92;;;15.40;99.90;;;;;;4986181;28;20042;-76
2022/11/02 12:23:45;;;;;;;12.82;2.58;;;15.40;99.90;;;;;;4990657;28;20061;-77
2022/11/02 12:26:23;;;;;;;17.02;2.70;;;15.40;99.90;;;;;;4990862;28;20030;-76
2022/11/02 12:28:51;;;;;;;17.33;2.50;;;15.40;99.90;;;;;;4990279;28;20052;-77
2022/11/02 12:31:16;;;;;;;15.88;2.60;;;15.30;99.90;;;;;;4977483;28;20041;-76
2022/11/02 12:34:09;;;;;;;19.77;2.90;;;15.30;99.90;;;;;;4987672;28;20026;-75
2022/11/02 12:36:48;;;;;;;16.75;2.60;;;15.40;99.90;;;;;;4983321;28;20026;-75
2022/11/02 12:39:38;;;;;;;14.05;2.95;;;15.40;99.90;;;;;;4990107;28;20088;-76
2022/11/02 12:42:24;;;;;;;16.20;2.55;;;15.50;99.90;;;;;;4990183;28;20046;-77
2022/11/02 12:45:30;;;;;;;20.15;2.58;;;15.40;99.90;;;;;;4990690;28;20026;-79
2022/11/02 12:48:00;;;;;;;17.43;2.50;;;15.50;99.90;;;;;;4948409;29;20047;-76
2022/11/02 12:50:28;;;;;;;14.98;2.60;;;15.40;99.90;;;;;;4948649;29;20067;-76
2022/11/02 12:52:53;;;;;;;14.43;2.80;;;15.40;99.90;;;;;;4954205;28;20039;-76
2022/11/02 12:55:24;;;;;;;14.10;2.35;;;15.50;99.90;;;;;;4942871;28;20507;-76
2022/11/02 12:57:53;;;;;;;20.42;2.45;;;15.50;99.90;;;;;;4955975;28;20034;-75
2022/11/02 13:00:21;;;;;;;21.83;2.95;;;15.60;99.90;;;;;;4928651;29;20384;-77
2022/11/02 13:03:11;;;;;;;18.08;2.60;;;15.60;99.90;;;;;;4953329;29;20094;-75
2022/11/02 13:05:42;;;;;;;11.50;2.30;;;15.70;99.90;;;;;;4954248;28;20035;-79
2022/11/02 13:08:28;;;;;;;14.55;1.88;;;15.60;99.90;;;;;;4945410;29;20083;-75